• Join FlightAware (Why Join?)
  • Login
  • US Flag 
04:14AM EDT


 

Airport Tracker/Info


-or-


 

Live Flight TrackerFlight Track Log ✈ FLG3757 ✈ 17-Oct-2013 ✈ KBGM - KDTW

Flight Track Log - Related Links

Times and Time Zones

All times are in EDT time to prevent confusion due to time zone crossing. See the FLG3757 flight status page for this flight to view local times or setup timezone preferences in your user account.

Time Position Orientation Groundspeed Altitude Reporting Facility
EDT Latitude Longitude Course Direction KTS MPH feet Rate Location/Type
06:07AM 42.2367 -76.0111 294° West 168 193 3,000  Level New York Center
06:08AM 42.2606 -76.0831 294° West 191 220 5,700 2,280 Climbing New York Center
06:09AM 42.2803 -76.1519 291° West 223 257 7,600 2,220 Climbing New York Center
06:11AM 42.3278 -76.3161 291° West 255 293 12,100 2,340 Climbing Cleveland Center
06:12AM 42.3519 -76.4092 289° West 268 308 14,400 2,040 Climbing Cleveland Center
06:13AM 42.3764 -76.5025 290° West 266 306 16,300 1,620 Climbing Cleveland Center
06:14AM 42.4042 -76.6025 291° West 278 320 17,700 1,080 Climbing Cleveland Center
06:15AM 42.4325 -76.7117 289° West 299 344 18,500 780 Climbing Cleveland Center
06:16AM 42.4631 -76.8283 290° West 323 372 19,300 840 Climbing Cleveland Center
06:17AM 42.4961 -76.9489 290° West 340 391 20,300 900 Climbing Cleveland Center
06:18AM 42.5283 -77.0697 290° West 342 394 21,200 600 Climbing Cleveland Center
06:19AM 42.5386 -77.2019 276° West 359 413 21,600 420 Climbing Cleveland Center
06:20AM 42.5469 -77.3375 275° West 361 415 22,100 540 Climbing Cleveland Center
06:21AM 42.5558 -77.4833 275° West 369 425 22,700 540 Climbing Cleveland Center
06:22AM 42.5636 -77.6233 274° West 372 428 23,300 600 Climbing Cleveland Center
06:23AM 42.5728 -77.7628 275° West 372 428 24,000 300 Climbing Cleveland Center
06:24AM 42.5803 -77.9097 274° West 380 437 24,000  Level Cleveland Center
06:25AM 42.5883 -78.0575 274° West 390 449 24,000  Level Cleveland Center
06:26AM 42.5964 -78.2075 274° West 396 456 24,000  Level Cleveland Center
06:27AM 42.6039 -78.3583 274° West 400 460 24,000  Level Cleveland Center
06:28AM 42.6114 -78.5092 274° West 402 463 24,000  Level Cleveland Center
06:29AM 42.6225 -78.6931 275° West 405 466 24,000  Level Cleveland Center
06:31AM 42.6289 -78.8450 273° West 405 466 24,000  Level Cleveland Center
06:32AM 42.6361 -78.9964 274° West 402 463 24,000  Level Cleveland Center
06:33AM 42.6433 -79.1475 274° West 402 463 24,000  Level Cleveland Center
06:34AM 42.6497 -79.3000 273° West 405 466 24,000  Level Cleveland Center
06:35AM 42.6561 -79.4514 273° West 404 465 24,000  Level Cleveland Center
06:36AM 42.6622 -79.6033 273° West 405 466 24,000  Level Cleveland Center
06:37AM 42.6669 -79.7572 272° West 406 467 24,000  Level Cleveland Center
06:38AM 42.6733 -79.9078 273° West 403 464 24,000  Level Cleveland Center
06:39AM 42.6753 -80.0622 271° West 406 467 24,000  Level Cleveland Center
06:40AM 42.6822 -80.2147 274° West 403 464 24,000  Level Cleveland Center
06:41AM 42.6872 -80.3689 273° West 404 465 24,000  Level Cleveland Center
06:42AM 42.6928 -80.5222 273° West 403 464 24,000  Level Cleveland Center
06:43AM 42.6994 -80.7011 273° West 401 461 24,000  Level Cleveland Center
06:44AM 42.7039 -80.8586 272° West 412 474 24,000  Level Cleveland Center
06:45AM 42.6906 -81.0083 263° West 399 459 24,000  Level Cleveland Center
06:46AM 42.6742 -81.1581 262° West 399 459 24,000  Level Cleveland Center
06:47AM 42.6564 -81.3069 261° West 396 456 24,000  Level Cleveland Center
06:48AM 42.6394 -81.4567 261° West 397 457 24,000  Level Cleveland Center
06:49AM 42.6214 -81.6036 261° West 394 453 24,000 -840 Level Cleveland Center
06:50AM 42.6047 -81.7531 261° West 398 458 22,400 -1,800 Descending Cleveland Center
06:51AM 42.5864 -81.8983 260° West 392 451 20,400 -1,980 Descending Cleveland Center
06:52AM 42.5694 -82.0422 261° West 390 449 18,400 -1,980 Descending Cleveland Center
06:53AM 42.5519 -82.1844 261° West 385 443 16,400 -2,160 Descending Cleveland Center
06:53AM 42.5497 -82.2122 264° West 381 438 16,000 -2,340 Descending Cleveland Center
06:54AM 42.5358 -82.3236 260° West 352 405 14,300 -1,800 Descending Cleveland Center
06:54AM 42.5347 -82.3178 104° East 368 423 14,400 -1,920 Climbing Cleveland Center
06:55AM 42.5175 -82.4686 261° West 348 400 12,200 -1,980 Descending Cleveland Center
06:55AM 42.5186 -82.4469 86° East 355 409 12,400 -540 Climbing Cleveland Center
06:56AM 42.4919 -82.5925 256° West 329 379 11,700 -720 Descending Cleveland Center
06:56AM 42.4889 -82.5928 184° South 344 396 11,700 -1,020 Level Cleveland Center
06:57AM 42.4578 -82.6900 247° West 260 299 10,700 -1,020 Descending Cleveland Center
06:57AM 42.4564 -82.6889 149° Southeast 294 338 10,700 -1,680 Level Cleveland Center
06:58AM 42.4269 -82.7706 244° Southwest 240 276 9,000 -1,680 Descending Cleveland Center
06:58AM 42.4269 -82.7717 270° West 259 298 9,000 -1,860 Level Cleveland Center
06:59AM 42.4194 -82.8433 262° West 241 277 7,500 -2,280 Descending Cleveland Center
06:59AM 42.4144 -82.8606 249° West 243 280 6,700 -1,380 Descending Cleveland Center
07:00AM 42.4019 -82.9397 258° West 255 293 6,100 -720 Descending Cleveland Center
07:00AM 42.3997 -82.9528 257° West 249 287 6,000 -120 Descending Cleveland Center
07:01AM 42.3836 -83.0447 257° West 261 300 6,000  Level Cleveland Center
07:01AM 42.3825 -83.0475 242° Southwest 256 295 6,000 -1,380 Level Cleveland Center
07:02AM 42.3681 -83.1414 258° West 258 297 4,600 -1,380 Descending Cleveland Center
07:02AM 42.3656 -83.1419 189° South 260 299 4,600 -1,140 Level Cleveland Center
07:03AM 42.3458 -83.2117 249° West 207 238 3,600 -1,140 Descending Cleveland Center
07:03AM 42.3417 -83.2192 233° Southwest 222 255 3,500 -900 Descending Cleveland Center
07:04AM 42.3081 -83.2686 227° Southwest 186 214 2,700 -900 Descending Cleveland Center
07:04AM 42.3025 -83.2706 195° South 206 237 2,600 -840 Descending Cleveland Center
07:05AM 42.2681 -83.2969 210° Southwest 138 159 1,900 -1,020 Descending Cleveland Center
07:05AM 42.2578 -83.3050 210° Southwest 171 197 1,600 -840 Descending Cleveland Center
07:06AM 42.2367 -83.3236 213° Southwest 131 151 1,100 -420 Descending Cleveland Center
07:06AM 42.2294 -83.3253 190° South 153 176 1,200 240 Climbing Cleveland Center
07:08AM 42.2124 -83.3534 236° Southwest  Level Estimated
07:15AM 42.2124 -83.3534 236° Southwest  Level Estimated
07:16AM 42.2124 -83.3534 236° Southwest  Level Estimated